Russett, Maryland
Current Conditions -  °F | °C
As of 1:42 PM on Tuesday 27 Jan 2015 (Local Time) from KFME Reporting Station
Scattered Clouds Scattered Clouds  
Wind Chill: 27°   Ceiling: Unl
Heat Index: 34°   Visibility: 10mi
Dew Point: 25°   Wind: 8mph
Humidity: 70%   Direction: 340°NNW
Pressure: 29.8"   Gusts: 20mph
Location:  39.0994°N, 76.8068°W
Report Text: KFME 271842Z AUTO 34007G17KT 10SM SCT042 01/M04 A2980 RMK AO1
Loading
Personal Weather Stations






























Interactive Weather Map New forecast layout! Learn more

10-Day Weather Forecast

Advertisements
Track Severe Weather on mobile